Time;durP1;ratioP1;P1;durP2;ratioP2;P2;SDS_P1;SDS_P2;PMS_P1;PMS_P2;Temp;Humidity;BMP_temperature;BMP_pressure;BME280_temperature;BME280_humidity;BME280_pressure;Samples;Min_cycle;Max_cycle;Signal;HPM_P1;HPM_P2
2021/04/05 00:01:20;;;;;;;10.03;6.20;;;;;;;-2.10;80.72;92762.75;1863918;77;21474;-77
2021/04/05 00:03:49;;;;;;;8.03;5.30;;;;;;;-2.05;80.58;92757.19;1849493;76;21032;-77
2021/04/05 00:06:18;;;;;;;7.73;5.23;;;;;;;-2.03;80.35;92750.95;1859819;77;21190;-77
2021/04/05 00:08:48;;;;;;;9.40;5.30;;;;;;;-2.04;80.12;92742.75;1856063;76;21148;-77
2021/04/05 00:11:19;;;;;;;8.83;4.50;;;;;;;-2.06;80.22;92747.65;1853084;77;21108;-77
2021/04/05 00:13:47;;;;;;;7.80;4.60;;;;;;;-2.08;80.19;92743.19;1862712;77;21087;-77
2021/04/05 00:16:18;;;;;;;6.53;4.60;;;;;;;-2.18;80.31;92729.77;1848954;77;21127;-76
2021/04/05 00:18:47;;;;;;;6.30;4.70;;;;;;;-2.31;80.69;92730.30;1862464;77;22247;-77
2021/04/05 00:21:24;;;;;;;7.20;4.37;;;;;;;-2.42;81.22;92732.39;1811310;77;21543;-77
2021/04/05 00:23:53;;;;;;;9.57;5.37;;;;;;;-2.50;81.68;92727.39;1825886;77;21150;-77
2021/04/05 00:26:22;;;;;;;7.13;4.30;;;;;;;-2.57;82.02;92720.49;1840632;77;21517;-77
2021/04/05 00:28:49;;;;;;;7.10;4.67;;;;;;;-2.62;82.23;92712.73;1790793;77;21085;-77
2021/04/05 00:31:18;;;;;;;7.77;4.60;;;;;;;-2.69;82.37;92706.61;1863965;77;22075;-77
2021/04/05 00:33:45;;;;;;;7.10;4.03;;;;;;;-2.76;82.51;92701.81;1850872;77;21144;-77
2021/04/05 00:36:13;;;;;;;5.80;3.87;;;;;;;-2.77;82.82;92705.59;1858325;77;21150;-77
2021/04/05 00:38:41;;;;;;;5.43;4.20;;;;;;;-2.72;83.05;92702.71;1857757;77;21507;-77
2021/04/05 00:41:13;;;;;;;6.27;3.90;;;;;;;-2.68;83.12;92700.17;1851290;77;21210;-77
2021/04/05 00:43:45;;;;;;;6.13;4.10;;;;;;;-2.63;83.03;92699.17;1863919;77;21185;-77
2021/04/05 00:46:13;;;;;;;7.70;3.93;;;;;;;-2.64;82.84;92697.63;1848987;77;21506;-78
2021/04/05 00:48:41;;;;;;;5.13;3.80;;;;;;;-2.67;82.93;92687.63;1799031;77;21037;-77
2021/04/05 00:51:12;;;;;;;4.23;3.70;;;;;;;-2.74;83.15;92678.88;1767602;78;21479;-77
2021/04/05 00:53:42;;;;;;;5.07;3.67;;;;;;;-2.77;83.28;92682.97;1832256;77;21060;-77
2021/04/05 00:56:10;;;;;;;12.83;5.70;;;;;;;-2.79;83.36;92679.84;1851967;77;21378;-77
2021/04/05 00:58:37;;;;;;;10.37;5.50;;;;;;;-2.78;83.55;92683.31;1854336;77;21147;-77
2021/04/05 01:01:09;;;;;;;12.03;5.77;;;;;;;-2.75;83.66;92679.97;1851062;77;21100;-77
2021/04/05 01:03:42;;;;;;;11.33;7.57;;;;;;;-2.69;83.62;92677.33;1852905;77;21167;-77
2021/04/05 01:06:13;;;;;;;16.53;8.33;;;;;;;-2.68;83.40;92676.22;1817122;77;21167;-77
2021/04/05 01:08:41;;;;;;;11.10;6.73;;;;;;;-2.70;83.31;92675.23;1781069;80;21164;-78
2021/04/05 01:11:10;;;;;;;12.20;6.40;;;;;;;-2.69;83.48;92676.00;1778742;79;21143;-77
2021/04/05 01:13:37;;;;;;;14.60;9.13;;;;;;;-2.65;83.45;92667.58;1801828;79;21176;-77
2021/04/05 01:16:05;;;;;;;15.23;7.97;;;;;;;-2.59;83.47;92668.16;1832374;78;21169;-77
2021/04/05 01:18:33;;;;;;;10.47;5.27;;;;;;;-2.52;83.54;92671.02;1836050;77;21178;-77
2021/04/05 01:21:01;;;;;;;10.70;5.10;;;;;;;-2.53;83.14;92663.59;1811006;78;21119;-77
2021/04/05 01:23:29;;;;;;;8.07;5.37;;;;;;;-2.62;82.81;92660.83;1776236;80;21188;-77
2021/04/05 01:25:58;;;;;;;10.40;5.90;;;;;;;-2.76;82.87;92654.47;1756902;80;21097;-78
2021/04/05 01:28:26;;;;;;;10.70;6.23;;;;;;;-2.82;83.01;92655.78;1796227;79;21170;-77
2021/04/05 01:30:56;;;;;;;9.90;5.27;;;;;;;-2.86;83.12;92652.23;1830602;78;21198;-77
2021/04/05 01:33:36;;;;;;;8.20;5.30;;;;;;;-2.88;83.33;92649.91;1841764;77;21315;-78
2021/04/05 01:36:13;;;;;;;4.73;4.00;;;;;;;-2.85;83.36;92649.81;1841703;77;21156;-78
2021/04/05 01:38:46;;;;;;;5.47;3.40;;;;;;;-2.80;83.19;92646.93;1843056;77;21092;-78
2021/04/05 01:41:18;;;;;;;5.10;3.50;;;;;;;-2.81;83.01;92643.50;1839690;77;21147;-78
2021/04/05 01:43:46;;;;;;;5.23;3.40;;;;;;;-2.83;82.92;92645.70;1803242;79;21100;-77
2021/04/05 01:46:15;;;;;;;5.07;3.63;;;;;;;-2.90;82.93;92638.80;1836368;78;21426;-78
2021/04/05 01:48:43;;;;;;;5.27;3.13;;;;;;;-2.96;83.13;92638.81;1840322;77;21151;-78
2021/04/05 01:51:14;;;;;;;3.63;3.20;;;;;;;-3.01;83.34;92635.81;1840407;78;21059;-77
2021/04/05 01:53:43;;;;;;;4.13;3.37;;;;;;;-2.99;83.43;92635.47;1830029;78;21037;-78
2021/04/05 01:56:12;;;;;;;5.53;3.07;;;;;;;-3.03;83.38;92625.27;1749421;78;21171;-78
2021/04/05 01:58:42;;;;;;;5.17;4.10;;;;;;;-3.05;83.48;92626.14;1821174;78;21184;-78
2021/04/05 02:01:13;;;;;;;4.63;3.83;;;;;;;-3.12;83.42;92629.36;1757907;78;21071;-78
2021/04/05 02:03:40;;;;;;;4.13;3.07;;;;;;;-3.16;83.52;92620.45;1805313;78;21036;-78
2021/04/05 02:06:21;;;;;;;4.97;3.27;;;;;;;-3.19;83.52;92619.81;1824112;78;21060;-78
2021/04/05 02:08:50;;;;;;;5.43;3.07;;;;;;;-3.20;83.78;92617.70;1809118;76;21482;-78
2021/04/05 02:11:23;;;;;;;5.80;3.63;;;;;;;-3.17;83.76;92617.58;1839617;77;21349;-78
2021/04/05 02:13:56;;;;;;;3.90;2.70;;;;;;;-3.20;83.58;92615.57;1798180;79;21073;-78
2021/04/05 02:16:25;;;;;;;6.00;3.50;;;;;;;-3.31;83.59;92615.23;1836463;78;21103;-78
2021/04/05 02:18:56;;;;;;;3.43;3.13;;;;;;;-3.39;83.88;92617.40;1811576;78;21132;-78
2021/04/05 02:21:25;;;;;;;6.10;3.10;;;;;;;-3.40;84.13;92611.86;1790179;79;21115;-78
2021/04/05 02:23:54;;;;;;;4.93;3.30;;;;;;;-3.40;84.17;92613.75;1782410;80;21601;-78
2021/04/05 02:26:25;;;;;;;5.27;3.13;;;;;;;-3.40;84.38;92604.45;1786564;80;21491;-78
2021/04/05 02:28:54;;;;;;;6.10;2.97;;;;;;;-3.41;84.32;92610.31;1786616;80;21079;-78
2021/04/05 02:31:23;;;;;;;5.43;2.83;;;;;;;-3.42;84.26;92605.56;1800940;79;21049;-78
2021/04/05 02:33:53;;;;;;;3.93;3.10;;;;;;;-3.50;84.22;92598.97;1803897;79;21085;-76
2021/04/05 02:36:24;;;;;;;5.13;3.50;;;;;;;-3.56;84.46;92601.63;1796861;79;22318;-77
2021/04/05 02:38:56;;;;;;;5.20;3.90;;;;;;;-3.59;84.54;92598.29;1786312;80;21060;-77
2021/04/05 02:41:24;;;;;;;5.53;3.63;;;;;;;-3.59;84.52;92594.30;1786595;80;21135;-77
2021/04/05 02:43:52;;;;;;;5.23;3.47;;;;;;;-3.59;84.55;92594.30;1830121;78;21029;-77
2021/04/05 02:46:28;;;;;;;3.77;3.37;;;;;;;-3.61;84.46;92590.66;1827595;78;21049;-77
2021/04/05 02:48:59;;;;;;;5.17;3.30;;;;;;;-3.60;84.43;92592.76;1827029;78;22195;-77
2021/04/05 02:51:26;;;;;;;5.20;3.63;;;;;;;-3.62;84.48;92582.99;1826756;78;21124;-76
2021/04/05 02:53:57;;;;;;;5.37;3.93;;;;;;;-3.59;84.49;92588.98;1826913;78;21484;-77
2021/04/05 02:56:24;;;;;;;4.80;3.40;;;;;;;-3.60;84.48;92594.09;1826953;78;21089;-77
2021/04/05 02:58:53;;;;;;;5.50;3.93;;;;;;;-3.62;84.37;92588.31;1826903;78;21128;-77
2021/04/05 03:01:20;;;;;;;4.43;3.30;;;;;;;-3.66;84.51;92595.59;1826735;78;21315;-77
2021/04/05 03:03:47;;;;;;;7.10;4.10;;;;;;;-3.70;84.41;92584.07;1818758;78;21500;-77
2021/04/05 03:06:20;;;;;;;5.23;3.83;;;;;;;-3.75;84.26;92578.97;1799649;76;21076;-77
2021/04/05 03:08:49;;;;;;;4.85;3.42;;;;;;;-3.85;84.37;92577.26;1864445;76;21147;-77
2021/04/05 03:11:21;;;;;;;8.37;4.57;;;;;;;-3.93;84.58;92566.93;1813765;77;21092;-77
2021/04/05 03:13:51;;;;;;;4.80;3.97;;;;;;;-4.00;84.76;92571.98;1838014;77;21136;-77
2021/04/05 03:16:22;;;;;;;7.23;4.03;;;;;;;-3.99;84.82;92572.97;1818979;78;21818;-77
2021/04/05 03:18:50;;;;;;;5.40;3.70;;;;;;;-4.00;85.38;92559.48;1763288;78;21508;-77
2021/04/05 03:21:19;;;;;;;8.20;4.90;;;;;;;-4.02;85.47;92560.92;1733093;80;21104;-77
2021/04/05 03:23:47;;;;;;;4.50;3.13;;;;;;;-4.02;85.54;92567.56;1766941;80;21476;-77
2021/04/05 03:26:15;;;;;;;7.47;4.30;;;;;;;-4.05;85.81;92555.70;1811380;79;21364;-77
2021/04/05 03:28:42;;;;;;;10.13;6.43;;;;;;;-4.09;86.22;92564.65;1817729;79;21057;-77
2021/04/05 03:31:16;;;;;;;8.47;5.13;;;;;;;-4.08;86.38;92557.67;1817848;79;21072;-77
2021/04/05 03:33:51;;;;;;;8.87;5.37;;;;;;;-4.02;86.56;92571.55;1817797;79;21092;-77
2021/04/05 03:36:22;;;;;;;;;;;;;;;-3.95;86.52;92546.55;1820266;79;21479;-78
2021/04/05 03:38:49;;;;;;;8.73;5.30;;;;;;;-3.86;86.32;92551.80;1817613;79;21369;-79
2021/04/05 03:41:32;;;;;;;7.20;5.27;;;;;;;-3.79;86.27;92556.04;1817921;79;21080;-78
2021/04/05 03:44:29;;;;;;;9.80;5.77;;;;;;;-3.77;85.80;92542.64;1817897;79;21487;-78
2021/04/05 03:47:01;;;;;;;13.50;6.60;;;;;;;-3.79;85.78;92542.20;1817837;79;21104;-77
2021/04/05 03:49:36;;;;;;;14.40;8.03;;;;;;;-3.78;85.91;92548.29;1817945;79;21072;-78
2021/04/05 03:52:16;;;;;;;;;;;;;;;-3.80;85.51;92535.88;1821771;78;22091;-78
2021/04/05 03:54:59;;;;;;;33.07;14.33;;;;;;;-3.87;85.63;92537.75;1820074;77;20224;-78
2021/04/05 03:57:30;;;;;;;22.47;11.10;;;;;;;-3.92;85.79;92539.26;1826185;76;21135;-78
2021/04/05 03:59:58;;;;;;;29.07;11.80;;;;;;;-3.93;86.03;92517.80;1843789;77;21096;-78
2021/04/05 04:02:32;;;;;;;32.70;14.60;;;;;;;-3.84;86.83;92525.67;1843953;77;21099;-78
2021/04/05 04:05:17;;;;;;;19.37;9.00;;;;;;;-3.75;86.45;92522.40;1843834;77;21473;-77
2021/04/05 04:10:31;;;;;;;19.87;8.73;;;;;;;-3.65;86.05;92507.35;1802039;79;21107;-78
2021/04/05 04:12:58;;;;;;;22.20;11.40;;;;;;;-3.55;85.71;92519.45;1785974;79;21070;-78
2021/04/05 04:15:25;;;;;;;20.50;10.73;;;;;;;-3.52;85.37;92501.53;1769634;77;21054;-78
2021/04/05 04:17:53;;;;;;;19.53;9.50;;;;;;;-3.48;85.46;92503.20;1849746;77;21347;-76
2021/04/05 04:20:21;;;;;;;22.27;10.60;;;;;;;-3.40;85.46;92500.77;1851460;77;21155;-76
2021/04/05 04:22:48;;;;;;;22.53;11.03;;;;;;;-3.36;84.96;92505.66;1851607;77;21041;-76
2021/04/05 04:25:16;;;;;;;12.40;6.37;;;;;;;-3.38;84.61;92495.36;1851455;77;21135;-75
2021/04/05 04:27:45;;;;;;;18.27;8.33;;;;;;;-3.38;84.22;92495.36;1851624;77;21151;-76
2021/04/05 04:30:33;;;;;;;18.80;9.73;;;;;;;-3.22;84.02;92503.45;1851421;77;21352;-76
2021/04/05 04:33:04;;;;;;;10.27;6.27;;;;;;;-3.13;83.87;92483.40;1851575;77;21040;-76
2021/04/05 04:35:32;;;;;;;9.33;6.43;;;;;;;-3.02;83.31;92488.50;1812887;79;21058;-76
2021/04/05 04:38:00;;;;;;;6.13;4.77;;;;;;;-2.90;82.89;92492.48;1829984;78;21061;-75
2021/04/05 04:40:29;;;;;;;7.57;4.80;;;;;;;-2.77;81.89;92493.27;1825879;78;21056;-76
2021/04/05 04:42:59;;;;;;;12.00;6.50;;;;;;;-2.56;79.83;92491.22;1814465;79;22077;-76
2021/04/05 04:45:27;;;;;;;14.47;8.07;;;;;;;-2.40;80.52;92494.55;1814334;79;21556;-75
2021/04/05 04:47:55;;;;;;;9.17;5.60;;;;;;;-2.39;80.48;92493.43;1814566;78;21123;-75
2021/04/05 04:50:24;;;;;;;8.00;5.27;;;;;;;-2.28;80.19;92494.52;1814504;79;21135;-76
2021/04/05 04:52:53;;;;;;;6.17;4.37;;;;;;;-1.78;79.58;92493.22;1793333;78;21500;-78
2021/04/05 04:55:22;;;;;;;9.10;5.83;;;;;;;-1.19;76.78;92486.34;1828089;78;22237;-78
2021/04/05 04:57:49;;;;;;;8.13;5.80;;;;;;;-0.67;74.05;92491.40;1823229;78;21073;-77
2021/04/05 05:00:17;;;;;;;5.83;4.50;;;;;;;-0.26;73.94;92495.92;1823018;77;21095;-78
2021/04/05 05:02:45;;;;;;;6.03;4.30;;;;;;;0.09;71.87;92491.86;1817133;78;21133;-78
2021/04/05 05:05:14;;;;;;;6.67;4.90;;;;;;;0.32;71.31;92485.81;1817168;79;21066;-78
2021/04/05 05:07:41;;;;;;;6.47;4.90;;;;;;;0.58;67.87;92481.90;1817102;78;21638;-77
2021/04/05 05:10:11;;;;;;;6.50;4.22;;;;;;;1.03;67.03;92477.70;1816986;79;21069;-77
2021/04/05 05:12:39;;;;;;;6.55;4.65;;;;;;;1.60;65.45;92477.22;1816673;79;21221;-78
2021/04/05 05:15:10;;;;;;;7.10;5.22;;;;;;;2.18;63.73;92483.56;1817281;79;21097;-77
2021/04/05 05:17:45;;;;;;;5.80;4.15;;;;;;;2.81;62.16;92479.24;1817157;79;21240;-78
2021/04/05 05:20:15;;;;;;;6.47;4.72;;;;;;;3.41;59.11;92478.23;1817351;78;21556;-77
2021/04/05 05:23:00;;;;;;;5.40;3.90;;;;;;;3.73;55.84;92481.16;1816746;78;21133;-73
2021/04/05 05:25:28;;;;;;;4.45;3.80;;;;;;;3.61;54.97;92468.80;1817011;79;21054;-79
2021/04/05 05:28:02;;;;;;;5.42;3.83;;;;;;;3.47;56.80;92466.58;1816424;78;21129;-78
2021/04/05 05:30:30;;;;;;;5.75;4.10;;;;;;;3.66;56.01;92460.94;1814763;78;21049;-78
2021/04/05 05:33:00;;;;;;;5.95;3.83;;;;;;;3.69;52.74;92456.16;1817108;79;21269;-75
2021/04/05 05:35:27;;;;;;;7.17;4.37;;;;;;;3.44;53.92;92447.16;1822289;77;21545;-76
2021/04/05 05:38:01;;;;;;;4.00;3.30;;;;;;;3.36;53.81;92462.46;1795052;78;21138;-74
2021/04/05 05:40:28;;;;;;;5.03;3.95;;;;;;;3.28;54.51;92471.04;1778429;80;21089;-74
2021/04/05 05:43:30;;;;;;;4.03;3.35;;;;;;;3.45;55.98;92461.55;1785915;79;21037;-74
2021/04/05 05:46:22;;;;;;;6.22;4.12;;;;;;;3.84;56.70;92455.68;1805027;79;22157;-76
2021/04/05 05:49:15;;;;;;;4.40;3.53;;;;;;;4.20;52.05;92457.95;1789707;77;21211;-77
2021/04/05 05:52:10;;;;;;;5.60;3.62;;;;;;;3.76;51.53;92462.14;1846023;77;21064;-77
2021/04/05 05:55:09;;;;;;;4.62;4.00;;;;;;;3.41;52.53;92466.14;1812107;79;21065;-76
2021/04/05 05:57:49;;;;;;;4.65;4.15;;;;;;;3.12;54.78;92436.92;1811879;79;21193;-76
2021/04/05 06:00:28;;;;;;;5.47;4.08;;;;;;;3.27;55.92;92460.10;1811402;79;21359;-77
2021/04/05 06:03:32;;;;;;;5.42;4.00;;;;;;;3.54;54.46;92472.01;1778327;78;21181;-76
2021/04/05 06:06:19;;;;;;;5.12;3.85;;;;;;;3.65;52.30;92464.20;1780306;80;21085;-77
2021/04/05 06:09:01;;;;;;;5.17;4.15;;;;;;;3.67;54.58;92457.10;1821011;78;21186;-78
2021/04/05 06:12:09;;;;;;;5.15;4.00;;;;;;;3.97;53.03;92458.81;1824330;77;21162;-78
2021/04/05 06:15:18;;;;;;;4.60;3.45;;;;;;;4.09;52.63;92449.06;1846662;77;22241;-77
2021/04/05 06:18:07;;;;;;;6.20;4.50;;;;;;;4.17;51.99;92445.83;1793647;78;21611;-77
2021/04/05 06:20:53;;;;;;;5.30;4.05;;;;;;;4.48;52.17;92435.78;1845163;77;21081;-77
2021/04/05 06:23:41;;;;;;;5.20;3.60;;;;;;;4.80;49.85;92431.03;1852069;77;21094;-75
2021/04/05 06:26:50;;;;;;;5.03;3.27;;;;;;;4.92;48.76;92433.34;1831036;76;21095;-78
2021/04/05 06:29:24;;;;;;;4.05;3.37;;;;;;;4.72;48.97;92420.05;1818111;76;21204;-79
2021/04/05 06:32:15;;;;;;;4.12;3.05;;;;;;;4.46;49.46;92418.45;1834560;77;21093;-73
2021/04/05 06:35:14;;;;;;;4.15;3.25;;;;;;;4.49;48.96;92423.08;1852101;77;21569;-73
2021/04/05 06:37:47;;;;;;;3.30;3.00;;;;;;;4.66;48.98;92418.30;1852241;77;21482;-78
2021/04/05 06:40:16;;;;;;;5.17;3.50;;;;;;;4.81;47.30;92420.45;1852109;77;21067;-76
2021/04/05 06:42:46;;;;;;;4.97;3.10;;;;;;;4.53;46.52;92425.97;1852061;77;21569;-74
2021/04/05 06:45:46;;;;;;;4.03;3.62;;;;;;;4.36;47.90;92422.64;1819031;78;21181;-78
2021/04/05 06:48:47;;;;;;;5.42;3.02;;;;;;;4.50;47.80;92420.00;1773471;80;21513;-76
2021/04/05 06:51:42;;;;;;;3.62;2.75;;;;;;;4.84;48.29;92430.45;1795381;79;21177;-73
2021/04/05 06:54:43;;;;;;;3.70;3.10;;;;;;;5.17;45.54;92412.41;1777805;79;21570;-78
2021/04/05 06:57:18;;;;;;;3.50;2.62;;;;;;;5.32;44.55;92425.48;1802948;78;21806;-76
2021/04/05 07:00:05;;;;;;;;;;;;;;;5.34;45.56;92425.09;1797929;78;21189;-77
2021/04/05 07:03:08;;;;;;;3.33;2.58;;;;;;;5.35;45.16;92432.05;1812118;79;20293;-76
2021/04/05 07:08:41;;;;;;;3.95;2.50;;;;;;;5.39;43.84;92419.91;1785827;78;21064;-81
2021/04/05 07:11:51;;;;;;;4.10;3.00;;;;;;;5.36;42.24;92407.97;1787604;77;21630;-78
2021/04/05 07:14:57;;;;;;;3.00;2.65;;;;;;;5.04;42.83;92413.34;1801078;79;21131;-78
2021/04/05 07:17:59;;;;;;;3.30;2.50;;;;;;;4.43;44.14;92415.94;1892858;75;21159;-77
2021/04/05 07:20:56;;;;;;;4.87;3.25;;;;;;;4.09;45.28;92420.81;1807989;79;21600;-78
2021/04/05 07:23:58;;;;;;;3.75;2.70;;;;;;;3.83;46.65;92421.84;1798907;78;21143;-75
2021/04/05 07:26:57;;;;;;;4.22;3.22;;;;;;;3.92;46.37;92431.70;1799100;79;21394;-77
2021/04/05 07:29:56;;;;;;;2.67;2.47;;;;;;;3.88;45.57;92401.34;1798910;79;21601;-78
2021/04/05 07:33:04;;;;;;;4.33;3.72;;;;;;;3.88;45.57;92401.34;1798821;79;21180;-75
2021/04/05 07:35:57;;;;;;;4.95;3.33;;;;;;;3.81;46.33;92414.17;1890131;76;21048;-72
2021/04/05 07:38:42;;;;;;;3.80;2.95;;;;;;;3.76;47.02;92413.19;1802223;74;21133;-79
2021/04/05 07:41:24;;;;;;;3.85;2.90;;;;;;;3.79;46.76;92423.17;1779810;80;22125;-76
2021/04/05 07:44:13;;;;;;;2.92;2.62;;;;;;;3.93;47.01;92402.89;1795080;79;21074;-75
2021/04/05 07:46:49;;;;;;;4.10;3.02;;;;;;;3.93;47.01;92402.89;1779814;79;21049;-77
2021/04/05 07:49:54;;;;;;;7.03;3.00;;;;;;;4.06;48.37;92414.84;1750001;80;21155;-77
2021/04/05 07:53:09;;;;;;;3.10;2.72;;;;;;;4.28;47.58;92399.55;1712615;82;21171;-76
2021/04/05 07:56:22;;;;;;;4.45;3.25;;;;;;;4.51;45.14;92408.07;1795350;79;21214;-78
2021/04/05 07:59:13;;;;;;;4.92;3.30;;;;;;;4.58;44.88;92398.66;1844711;75;21127;-75
2021/04/05 08:01:57;;;;;;;4.55;2.92;;;;;;;4.67;45.47;92390.81;1847938;76;21111;-75
2021/04/05 08:05:09;;;;;;;3.92;3.05;;;;;;;4.67;45.47;92390.81;1812714;77;21168;-79
2021/04/05 08:08:15;;;;;;;4.47;2.42;;;;;;;4.78;45.32;92391.61;1821110;77;21616;-76
2021/04/05 08:11:17;;;;;;;13.90;3.25;;;;;;;4.94;46.09;92393.92;1829689;77;21201;-76
2021/04/05 08:14:17;;;;;;;3.60;3.30;;;;;;;5.02;44.41;92376.02;1790864;79;21254;-77
2021/04/05 08:17:19;;;;;;;2.60;2.40;;;;;;;5.01;45.29;92382.57;1826382;78;21048;-76
2021/04/05 08:20:11;;;;;;;3.37;2.65;;;;;;;5.08;44.94;92393.36;1804421;79;21053;-77
2021/04/05 08:23:21;;;;;;;3.02;2.55;;;;;;;4.97;43.28;92395.86;1805002;79;21155;-75
2021/04/05 08:26:02;;;;;;;3.65;2.60;;;;;;;4.95;44.07;92363.13;1779586;80;21360;-74
2021/04/05 08:29:02;;;;;;;5.00;2.77;;;;;;;5.18;44.19;92373.52;1824308;77;21103;-77
2021/04/05 08:32:15;;;;;;;3.08;2.77;;;;;;;5.44;44.82;92354.23;1824170;77;21075;-77
2021/04/05 08:35:03;;;;;;;3.70;2.80;;;;;;;5.68;43.43;92372.08;1783707;76;21088;-78
2021/04/05 08:38:07;;;;;;;3.22;2.90;;;;;;;6.06;43.23;92359.67;1824384;77;21060;-78
2021/04/05 08:40:43;;;;;;;3.22;2.92;;;;;;;6.41;41.25;92366.83;1824308;77;21872;-78
2021/04/05 08:43:30;;;;;;;4.42;3.50;;;;;;;6.47;40.74;92358.52;1809893;78;21052;-77
2021/04/05 08:46:13;;;;;;;3.85;2.95;;;;;;;6.37;40.09;92363.38;1789802;77;21122;-78
2021/04/05 08:48:44;;;;;;;3.15;2.80;;;;;;;6.36;41.86;92358.36;1812367;78;21585;-77
2021/04/05 08:51:25;;;;;;;3.47;3.00;;;;;;;6.56;42.01;92356.14;1815529;77;21036;-76
2021/04/05 08:53:56;;;;;;;5.65;2.95;;;;;;;6.77;41.73;92341.73;1779222;80;21399;-78
2021/04/05 08:56:28;;;;;;;4.83;3.08;;;;;;;6.67;38.69;92355.31;1759545;81;21545;-78
2021/04/05 08:59:08;;;;;;;3.98;3.00;;;;;;;6.36;39.84;92341.60;1788434;80;21135;-78
2021/04/05 09:01:47;;;;;;;3.35;3.05;;;;;;;6.30;42.49;92353.38;1788442;80;21123;-77
2021/04/05 09:04:23;;;;;;;4.65;3.40;;;;;;;6.40;40.54;92330.20;1788540;80;21112;-77
2021/04/05 09:07:24;;;;;;;3.92;2.90;;;;;;;6.40;41.86;92337.53;1788512;79;21192;-78
2021/04/05 09:09:52;;;;;;;6.12;3.30;;;;;;;6.42;39.08;92332.49;1767803;80;21511;-75
2021/04/05 09:12:20;;;;;;;3.77;3.37;;;;;;;6.17;40.29;92339.36;1788320;80;21056;-78
2021/04/05 09:15:31;;;;;;;4.03;3.15;;;;;;;5.82;39.05;92320.20;1788514;80;21139;-78
2021/04/05 09:18:28;;;;;;;5.10;3.12;;;;;;;5.64;40.50;92332.98;1789617;79;21390;-78
2021/04/05 09:21:16;;;;;;;;;;;;;;;5.67;41.58;92332.20;1787806;79;22305;-77
2021/04/05 09:24:31;;;;;;;4.20;2.67;;;;;;;5.85;42.16;92326.76;1785644;80;20472;-77
2021/04/05 09:27:31;;;;;;;3.70;3.00;;;;;;;6.09;41.97;92330.53;1779622;80;21160;-77
2021/04/05 09:30:44;;;;;;;3.92;2.95;;;;;;;6.23;39.81;92327.00;1780099;80;21637;-75
2021/04/05 09:33:55;;;;;;;4.00;3.20;;;;;;;6.12;41.41;92322.24;1780020;80;21060;-78
2021/04/05 09:37:03;;;;;;;4.22;3.10;;;;;;;6.05;39.21;92327.84;1779593;80;21440;-75
2021/04/05 09:40:04;;;;;;;4.58;3.05;;;;;;;5.84;42.08;92330.05;1778934;80;21163;-75
2021/04/05 09:42:52;;;;;;;4.83;3.20;;;;;;;5.82;42.06;92324.25;1776466;80;21168;-77
2021/04/05 09:45:46;;;;;;;4.83;3.70;;;;;;;5.84;40.44;92286.88;1778574;79;21147;-75
2021/04/05 09:48:40;;;;;;;4.28;3.25;;;;;;;5.43;41.82;92303.41;1722920;80;21637;-77
2021/04/05 09:52:04;;;;;;;3.80;3.40;;;;;;;5.29;43.21;92313.62;1784753;80;21445;-75
2021/04/05 09:54:42;;;;;;;4.03;3.50;;;;;;;5.34;43.25;92310.52;1787725;79;21186;-75
2021/04/05 09:57:26;;;;;;;3.85;2.90;;;;;;;5.42;42.35;92305.33;1813951;79;21104;-77
2021/04/05 09:59:55;;;;;;;4.25;3.15;;;;;;;5.49;43.35;92316.66;1788807;80;21061;-76
2021/04/05 10:02:34;;;;;;;3.67;3.12;;;;;;;5.63;43.39;92313.16;1790568;79;21100;-75
2021/04/05 10:05:02;;;;;;;5.35;3.40;;;;;;;5.64;42.74;92325.48;1789072;79;21405;-76
2021/04/05 10:07:30;;;;;;;3.42;3.12;;;;;;;5.51;41.33;92307.61;1803618;78;21539;-76
2021/04/05 10:09:57;;;;;;;5.08;3.30;;;;;;;5.32;41.76;92302.08;1835037;77;21135;-73
2021/04/05 10:12:25;;;;;;;4.67;3.30;;;;;;;5.19;42.72;92302.28;1732370;80;21070;-73
2021/04/05 10:14:54;;;;;;;4.03;3.62;;;;;;;5.13;41.99;92311.34;1812886;78;21056;-75
2021/04/05 10:17:24;;;;;;;3.98;3.58;;;;;;;5.21;43.40;92283.80;1777202;77;22413;-76
2021/04/05 10:19:56;;;;;;;4.58;3.90;;;;;;;5.31;42.97;92297.84;1809899;78;21080;-76
2021/04/05 10:22:23;;;;;;;5.60;3.45;;;;;;;5.28;40.68;92292.64;1814501;76;21584;-76
2021/04/05 10:24:57;;;;;;;5.80;3.47;;;;;;;5.09;41.68;92276.91;1775826;79;21144;-77
2021/04/05 10:27:26;;;;;;;5.40;3.50;;;;;;;5.10;43.93;92275.73;1772806;79;21224;-75
2021/04/05 10:29:56;;;;;;;4.05;3.30;;;;;;;5.26;43.58;92281.47;1807083;77;21432;-75
2021/04/05 10:32:25;;;;;;;4.28;3.25;;;;;;;5.35;41.17;92265.67;1844848;77;21121;-75
2021/04/05 10:34:58;;;;;;;4.62;3.40;;;;;;;5.33;41.06;92251.80;1811621;76;21489;-75
2021/04/05 10:37:34;;;;;;;4.45;3.67;;;;;;;5.16;40.51;92247.83;1823747;77;21586;-74
2021/04/05 10:40:02;;;;;;;4.85;3.52;;;;;;;5.09;42.34;92236.48;1828465;76;21469;-77
2021/04/05 10:42:49;;;;;;;6.03;3.87;;;;;;;4.96;41.45;92252.27;1769295;79;21371;-75
2021/04/05 10:45:25;;;;;;;3.50;3.20;;;;;;;4.88;42.04;92256.91;1768761;79;21126;-76
2021/04/05 10:48:10;;;;;;;4.47;3.40;;;;;;;4.84;40.71;92263.45;1807213;79;21112;-77
2021/04/05 10:50:46;;;;;;;;;;;;;;;4.83;42.75;92247.88;1848369;76;21562;-77
2021/04/05 10:53:16;;;;;;;4.93;3.63;;;;;;;4.96;42.74;92265.74;1835814;77;20230;-79
2021/04/05 10:56:01;;;;;;;6.85;3.98;;;;;;;5.06;42.79;92272.28;1811726;77;21498;-75
2021/04/05 10:58:32;;;;;;;4.75;3.55;;;;;;;5.02;42.46;92237.27;1821869;76;21137;-78
2021/04/05 11:01:01;;;;;;;6.33;4.25;;;;;;;5.09;42.45;92258.05;1775303;79;21097;-78
2021/04/05 11:03:28;;;;;;;4.50;3.85;;;;;;;5.15;40.89;92238.95;1767175;81;21121;-74
2021/04/05 11:05:58;;;;;;;4.10;3.55;;;;;;;5.20;42.24;92249.36;1827302;77;21130;-79
2021/04/05 11:08:28;;;;;;;4.55;3.17;;;;;;;5.35;42.96;92250.09;1848005;77;21525;-78
2021/04/05 11:11:15;;;;;;;4.05;3.65;;;;;;;5.54;42.76;92237.49;1849780;74;21131;-76
2021/04/05 11:13:52;;;;;;;5.17;3.77;;;;;;;5.80;43.66;92247.59;1829737;77;21144;-76
2021/04/05 11:16:21;;;;;;;5.70;3.58;;;;;;;5.91;42.43;92253.70;1806525;77;21216;-78
2021/04/05 11:18:55;;;;;;;5.20;3.70;;;;;;;5.92;41.57;92235.58;1793357;78;21133;-77
2021/04/05 11:21:25;;;;;;;5.65;4.37;;;;;;;5.94;40.97;92227.32;1860843;75;22621;-77
2021/04/05 11:23:57;;;;;;;7.15;3.95;;;;;;;6.02;43.13;92232.86;1822759;78;21505;-77
2021/04/05 11:26:32;;;;;;;8.73;4.00;;;;;;;6.12;42.10;92229.13;1816025;78;21114;-77
2021/04/05 11:29:00;;;;;;;5.95;4.15;;;;;;;6.12;42.06;92215.05;1801129;78;21130;-77
2021/04/05 11:31:31;;;;;;;4.42;3.47;;;;;;;6.18;41.97;92216.76;1784444;78;21175;-77
2021/04/05 11:34:00;;;;;;;5.03;3.75;;;;;;;6.29;40.09;92217.45;1831168;77;21377;-78
2021/04/05 11:36:43;;;;;;;7.25;3.77;;;;;;;6.24;39.53;92215.16;1890054;74;21585;-77
2021/04/05 11:39:13;;;;;;;6.72;3.77;;;;;;;6.20;39.53;92229.27;1787970;80;21641;-77
2021/04/05 11:41:40;;;;;;;9.00;4.70;;;;;;;6.17;41.62;92213.85;1734214;81;21075;-78
2021/04/05 11:44:08;;;;;;;4.75;3.90;;;;;;;6.23;41.49;92201.48;1866171;76;21126;-80
2021/04/05 11:46:37;;;;;;;4.05;3.65;;;;;;;6.33;40.08;92208.74;1854520;74;21308;-77
2021/04/05 11:49:11;;;;;;;5.12;4.10;;;;;;;6.33;40.96;92202.75;1797108;76;21616;-78
2021/04/05 11:51:48;;;;;;;3.90;3.35;;;;;;;6.33;40.09;92211.44;1861488;75;21110;-78
2021/04/05 11:54:32;;;;;;;4.47;3.80;;;;;;;6.25;40.41;92198.58;1822555;78;21137;-78
2021/04/05 11:57:01;;;;;;;4.70;3.77;;;;;;;6.15;40.80;92211.56;1838930;78;21128;-78
2021/04/05 11:59:28;;;;;;;5.00;3.72;;;;;;;6.17;40.93;92190.35;1823479;77;21352;-79
2021/04/05 12:02:01;;;;;;;5.17;3.58;;;;;;;6.21;41.96;92171.44;1782230;77;38612;-77
2021/04/05 12:04:54;;;;;;;6.15;4.20;;;;;;;6.26;41.67;92193.36;1799905;78;21073;-77
2021/04/05 12:07:24;;;;;;;6.20;3.72;;;;;;;6.36;42.01;92189.05;1800386;77;21044;-78
2021/04/05 12:10:10;;;;;;;5.97;4.20;;;;;;;6.39;40.55;92172.03;1835291;76;21570;-78
2021/04/05 12:12:41;;;;;;;5.33;4.15;;;;;;;6.31;41.27;92167.27;1780552;80;21060;-80
2021/04/05 12:15:16;;;;;;;6.60;4.10;;;;;;;6.26;39.25;92150.75;1857477;76;21143;-77
2021/04/05 12:17:49;;;;;;;5.10;3.95;;;;;;;6.15;39.94;92133.28;1830669;76;21040;-79
2021/04/05 12:20:19;;;;;;;5.37;3.77;;;;;;;6.10;41.36;92148.56;1795311;79;21108;-79
2021/04/05 12:22:46;;;;;;;6.75;4.15;;;;;;;6.10;39.69;92159.95;1824681;76;21175;-79
2021/04/05 12:25:14;;;;;;;7.83;4.20;;;;;;;5.97;39.38;92138.81;1781853;77;22635;-79
2021/04/05 12:27:42;;;;;;;5.33;4.58;;;;;;;5.74;40.46;92119.69;1853795;76;21159;-78
2021/04/05 12:30:24;;;;;;;3.90;3.60;;;;;;;5.69;40.83;92118.77;1815379;77;21486;-77
2021/04/05 12:32:44;;;;;;;5.42;3.87;;;;;;;5.74;40.80;92095.41;1795534;77;21059;-75
2021/04/05 12:35:12;;;;;;;11.38;4.58;;;;;;;5.68;40.45;92106.42;1809829;79;21076;-75